sensor_id;sensor_type;location;lat;lon;timestamp;temperature;humidity
41694;DHT22;27377;50.666;9.150;2023-06-26T00:01:31;17.40;99.90
41694;DHT22;27377;50.666;9.150;2023-06-26T00:07:05;17.40;99.90
41694;DHT22;27377;50.666;9.150;2023-06-26T00:09:32;17.30;99.90
41694;DHT22;27377;50.666;9.150;2023-06-26T00:12:03;17.20;99.90
41694;DHT22;27377;50.666;9.150;2023-06-26T00:14:42;17.20;99.90
41694;DHT22;27377;50.666;9.150;2023-06-26T00:17:11;17.20;99.90
41694;DHT22;27377;50.666;9.150;2023-06-26T00:19:58;17.10;99.90
41694;DHT22;27377;50.666;9.150;2023-06-26T00:25:55;17.10;99.90
41694;DHT22;27377;50.666;9.150;2023-06-26T00:28:27;17.00;99.90
41694;DHT22;27377;50.666;9.150;2023-06-26T00:31:03;16.90;99.90
41694;DHT22;27377;50.666;9.150;2023-06-26T00:34:02;16.90;99.90
41694;DHT22;27377;50.666;9.150;2023-06-26T00:37:17;16.90;99.90
41694;DHT22;27377;50.666;9.150;2023-06-26T00:39:43;16.90;99.90
41694;DHT22;27377;50.666;9.150;2023-06-26T00:42:18;16.90;99.90
41694;DHT22;27377;50.666;9.150;2023-06-26T00:45:38;16.90;99.90
41694;DHT22;27377;50.666;9.150;2023-06-26T00:48:13;16.80;99.90
41694;DHT22;27377;50.666;9.150;2023-06-26T00:51:22;16.80;99.90
41694;DHT22;27377;50.666;9.150;2023-06-26T00:54:02;16.80;99.90
41694;DHT22;27377;50.666;9.150;2023-06-26T00:57:17;16.80;99.90
41694;DHT22;27377;50.666;9.150;2023-06-26T01:00:15;16.70;99.90
41694;DHT22;27377;50.666;9.150;2023-06-26T01:03:03;16.70;99.90
41694;DHT22;27377;50.666;9.150;2023-06-26T01:05:41;16.60;99.90
41694;DHT22;27377;50.666;9.150;2023-06-26T01:08:21;16.60;99.90
41694;DHT22;27377;50.666;9.150;2023-06-26T01:10:49;16.60;99.90
41694;DHT22;27377;50.666;9.150;2023-06-26T01:13:18;16.60;99.90
41694;DHT22;27377;50.666;9.150;2023-06-26T01:16:23;16.60;99.90
41694;DHT22;27377;50.666;9.150;2023-06-26T01:18:57;16.50;99.90
41694;DHT22;27377;50.666;9.150;2023-06-26T01:21:27;16.50;99.90
41694;DHT22;27377;50.666;9.150;2023-06-26T01:24:19;16.40;99.90
41694;DHT22;27377;50.666;9.150;2023-06-26T01:26:53;16.40;99.90
41694;DHT22;27377;50.666;9.150;2023-06-26T01:29:26;16.40;99.90
41694;DHT22;27377;50.666;9.150;2023-06-26T01:31:55;16.30;99.90
41694;DHT22;27377;50.666;9.150;2023-06-26T01:34:33;16.30;99.90
41694;DHT22;27377;50.666;9.150;2023-06-26T01:37:02;16.30;99.90
41694;DHT22;27377;50.666;9.150;2023-06-26T01:39:28;16.30;99.90
41694;DHT22;27377;50.666;9.150;2023-06-26T01:42:03;16.30;99.90
41694;DHT22;27377;50.666;9.150;2023-06-26T01:44:42;16.30;99.90
41694;DHT22;27377;50.666;9.150;2023-06-26T01:47:27;16.20;99.90
41694;DHT22;27377;50.666;9.150;2023-06-26T01:50:06;16.20;99.90
41694;DHT22;27377;50.666;9.150;2023-06-26T01:53:11;16.10;99.90
41694;DHT22;27377;50.666;9.150;2023-06-26T01:55:50;16.10;99.90
41694;DHT22;27377;50.666;9.150;2023-06-26T01:58:20;16.00;99.90
41694;DHT22;27377;50.666;9.150;2023-06-26T02:00:54;16.10;99.90
41694;DHT22;27377;50.666;9.150;2023-06-26T02:03:22;16.10;99.90
41694;DHT22;27377;50.666;9.150;2023-06-26T02:05:52;16.00;99.90
41694;DHT22;27377;50.666;9.150;2023-06-26T02:08:27;16.00;99.90
41694;DHT22;27377;50.666;9.150;2023-06-26T02:11:10;16.00;99.90
41694;DHT22;27377;50.666;9.150;2023-06-26T02:13:53;16.00;99.90
41694;DHT22;27377;50.666;9.150;2023-06-26T02:16:23;15.90;99.90
41694;DHT22;27377;50.666;9.150;2023-06-26T02:18:54;15.90;99.90
41694;DHT22;27377;50.666;9.150;2023-06-26T02:21:30;15.80;99.90
41694;DHT22;27377;50.666;9.150;2023-06-26T02:24:02;15.90;99.90
41694;DHT22;27377;50.666;9.150;2023-06-26T02:26:29;15.80;99.90
41694;DHT22;27377;50.666;9.150;2023-06-26T02:29:10;15.90;99.90
41694;DHT22;27377;50.666;9.150;2023-06-26T02:31:42;15.80;99.90
41694;DHT22;27377;50.666;9.150;2023-06-26T02:34:13;15.80;99.90
41694;DHT22;27377;50.666;9.150;2023-06-26T02:36:42;15.80;99.90
41694;DHT22;27377;50.666;9.150;2023-06-26T02:39:10;15.70;99.90
41694;DHT22;27377;50.666;9.150;2023-06-26T02:41:45;15.70;99.90
41694;DHT22;27377;50.666;9.150;2023-06-26T02:44:23;15.60;99.90
41694;DHT22;27377;50.666;9.150;2023-06-26T02:46:53;15.60;99.90
41694;DHT22;27377;50.666;9.150;2023-06-26T02:49:25;15.50;99.90
41694;DHT22;27377;50.666;9.150;2023-06-26T02:51:54;15.50;99.90
41694;DHT22;27377;50.666;9.150;2023-06-26T02:54:24;15.50;99.90
41694;DHT22;27377;50.666;9.150;2023-06-26T02:56:57;15.40;99.90
41694;DHT22;27377;50.666;9.150;2023-06-26T02:59:29;15.40;99.90
41694;DHT22;27377;50.666;9.150;2023-06-26T03:01:59;15.40;99.90
41694;DHT22;27377;50.666;9.150;2023-06-26T03:04:29;15.30;99.90
41694;DHT22;27377;50.666;9.150;2023-06-26T03:06:59;15.30;99.90
41694;DHT22;27377;50.666;9.150;2023-06-26T03:09:28;15.20;99.90
41694;DHT22;27377;50.666;9.150;2023-06-26T03:11:59;15.20;99.90
41694;DHT22;27377;50.666;9.150;2023-06-26T03:14:32;15.10;99.90
41694;DHT22;27377;50.666;9.150;2023-06-26T03:17:00;15.10;99.90
41694;DHT22;27377;50.666;9.150;2023-06-26T03:19:33;15.10;99.90
41694;DHT22;27377;50.666;9.150;2023-06-26T03:22:02;15.00;99.90
41694;DHT22;27377;50.666;9.150;2023-06-26T03:24:30;14.90;99.90
41694;DHT22;27377;50.666;9.150;2023-06-26T03:27:00;14.90;99.90
41694;DHT22;27377;50.666;9.150;2023-06-26T03:29:36;14.90;99.90
41694;DHT22;27377;50.666;9.150;2023-06-26T03:32:02;14.90;99.90
41694;DHT22;27377;50.666;9.150;2023-06-26T03:34:34;14.90;99.90
41694;DHT22;27377;50.666;9.150;2023-06-26T03:37:03;14.90;99.90
41694;DHT22;27377;50.666;9.150;2023-06-26T03:39:29;14.90;99.90
41694;DHT22;27377;50.666;9.150;2023-06-26T03:42:07;14.90;99.90
41694;DHT22;27377;50.666;9.150;2023-06-26T03:44:37;14.90;99.90
41694;DHT22;27377;50.666;9.150;2023-06-26T03:47:09;14.90;99.90
41694;DHT22;27377;50.666;9.150;2023-06-26T03:49:39;14.90;99.90
41694;DHT22;27377;50.666;9.150;2023-06-26T03:52:07;14.90;99.90
41694;DHT22;27377;50.666;9.150;2023-06-26T03:54:35;14.90;99.90
41694;DHT22;27377;50.666;9.150;2023-06-26T03:57:04;14.80;99.90
41694;DHT22;27377;50.666;9.150;2023-06-26T03:59:36;14.80;99.90
41694;DHT22;27377;50.666;9.150;2023-06-26T04:02:06;14.80;99.90
41694;DHT22;27377;50.666;9.150;2023-06-26T04:04:36;14.80;99.90
41694;DHT22;27377;50.666;9.150;2023-06-26T04:07:11;14.90;99.90
41694;DHT22;27377;50.666;9.150;2023-06-26T04:10:01;14.90;99.90
41694;DHT22;27377;50.666;9.150;2023-06-26T04:12:47;14.90;99.90
41694;DHT22;27377;50.666;9.150;2023-06-26T04:15:19;14.90;99.90
41694;DHT22;27377;50.666;9.150;2023-06-26T04:17:47;14.90;99.90
41694;DHT22;27377;50.666;9.150;2023-06-26T04:20:13;14.80;99.90
41694;DHT22;27377;50.666;9.150;2023-06-26T04:22:49;14.80;99.90
41694;DHT22;27377;50.666;9.150;2023-06-26T04:25:19;14.90;99.90
41694;DHT22;27377;50.666;9.150;2023-06-26T04:27:47;15.00;99.90
41694;DHT22;27377;50.666;9.150;2023-06-26T04:30:22;15.00;99.90
41694;DHT22;27377;50.666;9.150;2023-06-26T04:32:49;15.10;99.90
41694;DHT22;27377;50.666;9.150;2023-06-26T04:35:15;15.10;99.90
41694;DHT22;27377;50.666;9.150;2023-06-26T04:37:41;15.20;99.90
41694;DHT22;27377;50.666;9.150;2023-06-26T04:40:16;15.30;99.90
41694;DHT22;27377;50.666;9.150;2023-06-26T04:42:44;15.30;99.90
41694;DHT22;27377;50.666;9.150;2023-06-26T04:45:14;15.30;99.90
41694;DHT22;27377;50.666;9.150;2023-06-26T04:47:42;15.40;99.90
41694;DHT22;27377;50.666;9.150;2023-06-26T04:50:13;15.40;99.90
41694;DHT22;27377;50.666;9.150;2023-06-26T04:52:39;15.50;99.90
41694;DHT22;27377;50.666;9.150;2023-06-26T04:55:06;15.50;99.90
41694;DHT22;27377;50.666;9.150;2023-06-26T04:57:35;15.60;99.90
41694;DHT22;27377;50.666;9.150;2023-06-26T05:00:03;15.60;99.90
41694;DHT22;27377;50.666;9.150;2023-06-26T05:02:35;15.70;99.90
41694;DHT22;27377;50.666;9.150;2023-06-26T05:05:01;15.80;99.90
41694;DHT22;27377;50.666;9.150;2023-06-26T05:07:26;15.80;99.90
41694;DHT22;27377;50.666;9.150;2023-06-26T05:09:52;15.80;99.90
41694;DHT22;27377;50.666;9.150;2023-06-26T05:12:17;15.90;99.90
41694;DHT22;27377;50.666;9.150;2023-06-26T05:14:43;16.00;99.90
41694;DHT22;27377;50.666;9.150;2023-06-26T05:17:08;16.10;99.90
41694;DHT22;27377;50.666;9.150;2023-06-26T05:19:34;16.20;99.90
41694;DHT22;27377;50.666;9.150;2023-06-26T05:22:01;16.20;99.90
41694;DHT22;27377;50.666;9.150;2023-06-26T05:24:30;16.30;99.90
41694;DHT22;27377;50.666;9.150;2023-06-26T05:26:56;16.40;99.90
41694;DHT22;27377;50.666;9.150;2023-06-26T05:29:22;16.50;99.90
41694;DHT22;27377;50.666;9.150;2023-06-26T05:31:49;16.60;99.90
41694;DHT22;27377;50.666;9.150;2023-06-26T05:34:17;16.70;99.90
41694;DHT22;27377;50.666;9.150;2023-06-26T05:36:46;16.80;99.90
41694;DHT22;27377;50.666;9.150;2023-06-26T05:39:13;16.80;99.90
41694;DHT22;27377;50.666;9.150;2023-06-26T05:41:39;16.90;99.90
41694;DHT22;27377;50.666;9.150;2023-06-26T05:44:04;17.00;99.90
41694;DHT22;27377;50.666;9.150;2023-06-26T05:46:30;17.10;99.90
41694;DHT22;27377;50.666;9.150;2023-06-26T05:48:55;17.20;99.90
41694;DHT22;27377;50.666;9.150;2023-06-26T05:51:21;17.30;99.90
41694;DHT22;27377;50.666;9.150;2023-06-26T05:53:47;17.40;99.90
41694;DHT22;27377;50.666;9.150;2023-06-26T05:56:13;17.60;99.90
41694;DHT22;27377;50.666;9.150;2023-06-26T05:58:39;17.70;99.90
41694;DHT22;27377;50.666;9.150;2023-06-26T06:01:06;17.90;99.90
41694;DHT22;27377;50.666;9.150;2023-06-26T06:03:31;18.10;99.90
41694;DHT22;27377;50.666;9.150;2023-06-26T06:05:57;18.30;99.90
41694;DHT22;27377;50.666;9.150;2023-06-26T06:08:22;18.50;99.90
41694;DHT22;27377;50.666;9.150;2023-06-26T06:10:48;18.70;99.90
41694;DHT22;27377;50.666;9.150;2023-06-26T06:13:13;18.80;99.90
41694;DHT22;27377;50.666;9.150;2023-06-26T06:15:39;18.90;99.90
41694;DHT22;27377;50.666;9.150;2023-06-26T06:18:04;19.00;99.90
41694;DHT22;27377;50.666;9.150;2023-06-26T06:20:30;19.10;99.90
41694;DHT22;27377;50.666;9.150;2023-06-26T06:22:55;19.20;99.90
41694;DHT22;27377;50.666;9.150;2023-06-26T06:25:21;19.40;99.90
41694;DHT22;27377;50.666;9.150;2023-06-26T06:27:46;19.50;99.90
41694;DHT22;27377;50.666;9.150;2023-06-26T06:30:12;19.50;99.90
41694;DHT22;27377;50.666;9.150;2023-06-26T06:32:38;19.60;99.90
41694;DHT22;27377;50.666;9.150;2023-06-26T06:35:04;19.70;99.90
41694;DHT22;27377;50.666;9.150;2023-06-26T06:37:37;19.80;99.90
41694;DHT22;27377;50.666;9.150;2023-06-26T06:40:04;19.80;99.90
41694;DHT22;27377;50.666;9.150;2023-06-26T06:42:31;19.90;99.90
41694;DHT22;27377;50.666;9.150;2023-06-26T06:44:57;19.90;99.90
41694;DHT22;27377;50.666;9.150;2023-06-26T06:47:23;20.00;99.90
41694;DHT22;27377;50.666;9.150;2023-06-26T06:49:48;20.10;99.90
41694;DHT22;27377;50.666;9.150;2023-06-26T06:52:14;20.20;99.90
41694;DHT22;27377;50.666;9.150;2023-06-26T06:54:56;20.20;99.90
41694;DHT22;27377;50.666;9.150;2023-06-26T06:57:24;20.30;99.90
41694;DHT22;27377;50.666;9.150;2023-06-26T06:59:50;20.30;99.90
41694;DHT22;27377;50.666;9.150;2023-06-26T07:02:19;20.40;99.90
41694;DHT22;27377;50.666;9.150;2023-06-26T07:04:44;20.40;99.90
41694;DHT22;27377;50.666;9.150;2023-06-26T07:07:11;20.40;99.90
41694;DHT22;27377;50.666;9.150;2023-06-26T07:09:39;20.50;99.90
41694;DHT22;27377;50.666;9.150;2023-06-26T07:12:04;20.50;99.90
41694;DHT22;27377;50.666;9.150;2023-06-26T07:14:30;20.50;99.90
41694;DHT22;27377;50.666;9.150;2023-06-26T07:16:56;20.50;99.90
41694;DHT22;27377;50.666;9.150;2023-06-26T07:19:21;20.60;99.90
41694;DHT22;27377;50.666;9.150;2023-06-26T07:21:47;20.60;99.90
41694;DHT22;27377;50.666;9.150;2023-06-26T07:24:13;20.70;99.90
41694;DHT22;27377;50.666;9.150;2023-06-26T07:26:38;20.70;99.90
41694;DHT22;27377;50.666;9.150;2023-06-26T07:29:04;20.70;99.90
41694;DHT22;27377;50.666;9.150;2023-06-26T07:31:30;20.80;99.90
41694;DHT22;27377;50.666;9.150;2023-06-26T07:33:55;20.90;99.90
41694;DHT22;27377;50.666;9.150;2023-06-26T07:36:21;20.90;99.90
41694;DHT22;27377;50.666;9.150;2023-06-26T07:38:47;21.00;99.90
41694;DHT22;27377;50.666;9.150;2023-06-26T07:41:12;21.00;99.90
41694;DHT22;27377;50.666;9.150;2023-06-26T07:43:38;21.00;99.90
41694;DHT22;27377;50.666;9.150;2023-06-26T07:46:03;21.00;99.90
41694;DHT22;27377;50.666;9.150;2023-06-26T07:48:29;21.10;99.90
41694;DHT22;27377;50.666;9.150;2023-06-26T07:50:54;21.10;99.90
41694;DHT22;27377;50.666;9.150;2023-06-26T07:53:20;21.10;99.90
41694;DHT22;27377;50.666;9.150;2023-06-26T07:55:45;21.20;99.90
41694;DHT22;27377;50.666;9.150;2023-06-26T07:58:11;21.20;99.90
41694;DHT22;27377;50.666;9.150;2023-06-26T08:00:36;21.30;99.90
41694;DHT22;27377;50.666;9.150;2023-06-26T08:03:02;21.30;99.90
41694;DHT22;27377;50.666;9.150;2023-06-26T08:05:27;21.40;99.90
41694;DHT22;27377;50.666;9.150;2023-06-26T08:07:53;21.50;99.90
41694;DHT22;27377;50.666;9.150;2023-06-26T08:10:19;21.50;99.90
41694;DHT22;27377;50.666;9.150;2023-06-26T08:12:44;21.50;99.90
41694;DHT22;27377;50.666;9.150;2023-06-26T08:15:11;21.60;99.90
41694;DHT22;27377;50.666;9.150;2023-06-26T08:17:38;21.60;99.90
41694;DHT22;27377;50.666;9.150;2023-06-26T08:20:04;21.60;99.90
41694;DHT22;27377;50.666;9.150;2023-06-26T08:22:30;21.60;99.90
41694;DHT22;27377;50.666;9.150;2023-06-26T08:24:56;21.60;99.90
41694;DHT22;27377;50.666;9.150;2023-06-26T08:27:22;21.60;99.90
41694;DHT22;27377;50.666;9.150;2023-06-26T08:29:47;21.60;99.90
41694;DHT22;27377;50.666;9.150;2023-06-26T08:32:13;21.60;99.90
41694;DHT22;27377;50.666;9.150;2023-06-26T08:34:38;21.70;99.90
41694;DHT22;27377;50.666;9.150;2023-06-26T08:37:04;21.70;99.90
41694;DHT22;27377;50.666;9.150;2023-06-26T08:39:30;21.80;99.90
41694;DHT22;27377;50.666;9.150;2023-06-26T08:41:55;21.90;99.90
41694;DHT22;27377;50.666;9.150;2023-06-26T08:44:21;21.90;99.90
41694;DHT22;27377;50.666;9.150;2023-06-26T08:46:50;21.90;99.90
41694;DHT22;27377;50.666;9.150;2023-06-26T08:50:15;21.90;99.90
41694;DHT22;27377;50.666;9.150;2023-06-26T08:52:56;22.00;99.90
41694;DHT22;27377;50.666;9.150;2023-06-26T08:55:27;22.10;99.90
41694;DHT22;27377;50.666;9.150;2023-06-26T08:57:54;22.10;99.90
41694;DHT22;27377;50.666;9.150;2023-06-26T09:00:20;22.10;99.90
41694;DHT22;27377;50.666;9.150;2023-06-26T09:02:45;22.10;99.90
41694;DHT22;27377;50.666;9.150;2023-06-26T09:05:11;22.10;99.90
41694;DHT22;27377;50.666;9.150;2023-06-26T09:07:37;22.10;99.90
41694;DHT22;27377;50.666;9.150;2023-06-26T09:10:02;22.10;99.90
41694;DHT22;27377;50.666;9.150;2023-06-26T09:12:28;22.20;99.90
41694;DHT22;27377;50.666;9.150;2023-06-26T09:14:57;22.20;99.90
41694;DHT22;27377;50.666;9.150;2023-06-26T09:17:29;22.20;99.90
41694;DHT22;27377;50.666;9.150;2023-06-26T09:19:55;22.20;99.90
41694;DHT22;27377;50.666;9.150;2023-06-26T09:22:21;22.30;99.90
41694;DHT22;27377;50.666;9.150;2023-06-26T09:24:48;22.40;99.90
41694;DHT22;27377;50.666;9.150;2023-06-26T09:27:14;22.50;99.90
41694;DHT22;27377;50.666;9.150;2023-06-26T09:29:39;22.50;99.90
41694;DHT22;27377;50.666;9.150;2023-06-26T09:32:08;22.50;99.90
41694;DHT22;27377;50.666;9.150;2023-06-26T09:34:34;22.60;99.90
41694;DHT22;27377;50.666;9.150;2023-06-26T09:37:00;22.60;99.90
41694;DHT22;27377;50.666;9.150;2023-06-26T09:39:30;22.50;99.90
41694;DHT22;27377;50.666;9.150;2023-06-26T09:41:56;22.50;99.90
41694;DHT22;27377;50.666;9.150;2023-06-26T09:44:23;22.50;99.90
41694;DHT22;27377;50.666;9.150;2023-06-26T09:46:48;22.50;99.90
41694;DHT22;27377;50.666;9.150;2023-06-26T09:49:14;22.50;99.90
41694;DHT22;27377;50.666;9.150;2023-06-26T09:51:41;22.50;99.90
41694;DHT22;27377;50.666;9.150;2023-06-26T09:54:08;22.60;99.90
41694;DHT22;27377;50.666;9.150;2023-06-26T09:56:34;22.60;99.90
41694;DHT22;27377;50.666;9.150;2023-06-26T09:59:02;22.60;99.90
41694;DHT22;27377;50.666;9.150;2023-06-26T10:01:28;22.60;99.90
41694;DHT22;27377;50.666;9.150;2023-06-26T10:03:54;22.60;99.90
41694;DHT22;27377;50.666;9.150;2023-06-26T10:06:27;22.70;99.90
41694;DHT22;27377;50.666;9.150;2023-06-26T10:08:55;22.60;99.90
41694;DHT22;27377;50.666;9.150;2023-06-26T10:11:22;22.70;99.90
41694;DHT22;27377;50.666;9.150;2023-06-26T10:13:51;22.70;99.90
41694;DHT22;27377;50.666;9.150;2023-06-26T10:16:24;22.80;99.90
41694;DHT22;27377;50.666;9.150;2023-06-26T10:18:53;22.80;99.90
41694;DHT22;27377;50.666;9.150;2023-06-26T10:21:22;22.80;99.90
41694;DHT22;27377;50.666;9.150;2023-06-26T10:23:50;22.90;99.90
41694;DHT22;27377;50.666;9.150;2023-06-26T10:26:19;22.90;99.90
41694;DHT22;27377;50.666;9.150;2023-06-26T10:28:47;22.90;99.90
41694;DHT22;27377;50.666;9.150;2023-06-26T10:31:15;23.00;99.90
41694;DHT22;27377;50.666;9.150;2023-06-26T10:33:41;23.00;99.90
41694;DHT22;27377;50.666;9.150;2023-06-26T10:36:14;23.10;99.90
41694;DHT22;27377;50.666;9.150;2023-06-26T10:38:51;23.10;99.90
41694;DHT22;27377;50.666;9.150;2023-06-26T10:41:20;23.10;99.90
41694;DHT22;27377;50.666;9.150;2023-06-26T10:44:10;23.10;99.90
41694;DHT22;27377;50.666;9.150;2023-06-26T10:46:53;23.20;99.90
41694;DHT22;27377;50.666;9.150;2023-06-26T10:49:20;23.20;99.90
41694;DHT22;27377;50.666;9.150;2023-06-26T10:51:50;23.20;99.90
41694;DHT22;27377;50.666;9.150;2023-06-26T10:54:18;23.20;99.90
41694;DHT22;27377;50.666;9.150;2023-06-26T10:56:48;23.30;99.90
41694;DHT22;27377;50.666;9.150;2023-06-26T10:59:22;23.30;99.90
41694;DHT22;27377;50.666;9.150;2023-06-26T11:02:00;23.30;99.90
41694;DHT22;27377;50.666;9.150;2023-06-26T11:04:44;23.30;99.90
41694;DHT22;27377;50.666;9.150;2023-06-26T11:10:00;23.30;99.90
41694;DHT22;27377;50.666;9.150;2023-06-26T11:12:45;23.30;99.90
41694;DHT22;27377;50.666;9.150;2023-06-26T11:15:19;23.30;99.90
41694;DHT22;27377;50.666;9.150;2023-06-26T11:17:45;23.30;99.90
41694;DHT22;27377;50.666;9.150;2023-06-26T11:20:13;23.40;99.90
41694;DHT22;27377;50.666;9.150;2023-06-26T11:22:40;23.40;99.90
41694;DHT22;27377;50.666;9.150;2023-06-26T11:25:07;23.50;99.90
41694;DHT22;27377;50.666;9.150;2023-06-26T11:30:11;23.60;99.90
41694;DHT22;27377;50.666;9.150;2023-06-26T11:32:47;23.50;99.90
41694;DHT22;27377;50.666;9.150;2023-06-26T11:35:12;23.60;99.90
41694;DHT22;27377;50.666;9.150;2023-06-26T11:37:38;23.60;99.90
41694;DHT22;27377;50.666;9.150;2023-06-26T11:40:20;23.60;99.90
41694;DHT22;27377;50.666;9.150;2023-06-26T11:42:47;23.60;99.90
41694;DHT22;27377;50.666;9.150;2023-06-26T11:45:12;23.60;99.90
41694;DHT22;27377;50.666;9.150;2023-06-26T11:47:38;23.60;99.90
41694;DHT22;27377;50.666;9.150;2023-06-26T11:50:04;23.50;99.90
41694;DHT22;27377;50.666;9.150;2023-06-26T11:52:32;23.60;99.90
41694;DHT22;27377;50.666;9.150;2023-06-26T11:54:58;23.70;99.60
41694;DHT22;27377;50.666;9.150;2023-06-26T11:57:24;23.60;99.90
41694;DHT22;27377;50.666;9.150;2023-06-26T11:59:50;23.60;99.90
41694;DHT22;27377;50.666;9.150;2023-06-26T12:02:16;23.60;99.90
41694;DHT22;27377;50.666;9.150;2023-06-26T12:04:43;23.60;99.90
41694;DHT22;27377;50.666;9.150;2023-06-26T12:07:10;23.70;99.90
41694;DHT22;27377;50.666;9.150;2023-06-26T12:09:46;23.70;99.90
41694;DHT22;27377;50.666;9.150;2023-06-26T12:12:14;23.70;99.90
41694;DHT22;27377;50.666;9.150;2023-06-26T12:14:41;23.70;99.90
41694;DHT22;27377;50.666;9.150;2023-06-26T12:17:12;23.70;99.90
41694;DHT22;27377;50.666;9.150;2023-06-26T12:20:28;23.70;99.90
41694;DHT22;27377;50.666;9.150;2023-06-26T12:22:57;23.70;99.90
41694;DHT22;27377;50.666;9.150;2023-06-26T12:25:23;23.60;99.90
41694;DHT22;27377;50.666;9.150;2023-06-26T12:27:49;23.60;99.90
41694;DHT22;27377;50.666;9.150;2023-06-26T12:30:15;23.50;99.80
41694;DHT22;27377;50.666;9.150;2023-06-26T12:32:44;23.50;99.90
41694;DHT22;27377;50.666;9.150;2023-06-26T12:35:11;23.40;99.90
41694;DHT22;27377;50.666;9.150;2023-06-26T12:37:37;23.40;99.90
41694;DHT22;27377;50.666;9.150;2023-06-26T12:40:16;23.40;99.90
41694;DHT22;27377;50.666;9.150;2023-06-26T12:42:43;23.50;99.90
41694;DHT22;27377;50.666;9.150;2023-06-26T12:45:13;23.40;99.50
41694;DHT22;27377;50.666;9.150;2023-06-26T12:47:38;23.40;99.50
41694;DHT22;27377;50.666;9.150;2023-06-26T12:50:06;23.40;99.70
41694;DHT22;27377;50.666;9.150;2023-06-26T12:52:32;23.40;99.60
41694;DHT22;27377;50.666;9.150;2023-06-26T12:54:58;23.50;99.50
41694;DHT22;27377;50.666;9.150;2023-06-26T12:57:23;23.40;99.80
41694;DHT22;27377;50.666;9.150;2023-06-26T12:59:49;23.40;99.50
41694;DHT22;27377;50.666;9.150;2023-06-26T13:02:15;23.40;99.50
41694;DHT22;27377;50.666;9.150;2023-06-26T13:04:41;23.40;99.10
41694;DHT22;27377;50.666;9.150;2023-06-26T13:07:07;23.50;98.90
41694;DHT22;27377;50.666;9.150;2023-06-26T13:09:34;23.50;99.60
41694;DHT22;27377;50.666;9.150;2023-06-26T13:12:01;23.50;99.00
41694;DHT22;27377;50.666;9.150;2023-06-26T13:14:27;23.50;98.90
41694;DHT22;27377;50.666;9.150;2023-06-26T13:16:53;23.50;98.30
41694;DHT22;27377;50.666;9.150;2023-06-26T13:19:18;23.60;98.40
41694;DHT22;27377;50.666;9.150;2023-06-26T13:21:44;23.50;98.30
41694;DHT22;27377;50.666;9.150;2023-06-26T13:24:09;23.60;98.10
41694;DHT22;27377;50.666;9.150;2023-06-26T13:26:35;23.70;97.80
41694;DHT22;27377;50.666;9.150;2023-06-26T13:29:01;23.70;97.70
41694;DHT22;27377;50.666;9.150;2023-06-26T13:31:27;23.70;97.00
41694;DHT22;27377;50.666;9.150;2023-06-26T13:33:52;23.70;95.30
41694;DHT22;27377;50.666;9.150;2023-06-26T13:36:19;23.70;94.60
41694;DHT22;27377;50.666;9.150;2023-06-26T13:38:45;23.80;94.90
41694;DHT22;27377;50.666;9.150;2023-06-26T13:41:11;23.80;94.60
41694;DHT22;27377;50.666;9.150;2023-06-26T13:43:37;23.70;94.80
41694;DHT22;27377;50.666;9.150;2023-06-26T13:46:02;23.70;95.30
41694;DHT22;27377;50.666;9.150;2023-06-26T13:48:28;23.70;95.10
41694;DHT22;27377;50.666;9.150;2023-06-26T13:50:54;23.60;94.70
41694;DHT22;27377;50.666;9.150;2023-06-26T13:53:20;23.60;94.40
41694;DHT22;27377;50.666;9.150;2023-06-26T13:55:46;23.60;94.70
41694;DHT22;27377;50.666;9.150;2023-06-26T13:58:11;23.60;94.50
41694;DHT22;27377;50.666;9.150;2023-06-26T14:00:38;23.70;92.50
41694;DHT22;27377;50.666;9.150;2023-06-26T14:03:05;23.60;93.20
41694;DHT22;27377;50.666;9.150;2023-06-26T14:05:32;23.70;93.10
41694;DHT22;27377;50.666;9.150;2023-06-26T14:07:58;23.70;93.00
41694;DHT22;27377;50.666;9.150;2023-06-26T14:10:24;23.80;91.80
41694;DHT22;27377;50.666;9.150;2023-06-26T14:12:50;23.90;91.70
41694;DHT22;27377;50.666;9.150;2023-06-26T14:15:16;23.90;91.20
41694;DHT22;27377;50.666;9.150;2023-06-26T14:17:41;23.90;90.80
41694;DHT22;27377;50.666;9.150;2023-06-26T14:20:08;23.80;89.90
41694;DHT22;27377;50.666;9.150;2023-06-26T14:22:41;23.80;90.10
41694;DHT22;27377;50.666;9.150;2023-06-26T14:25:08;23.80;90.40
41694;DHT22;27377;50.666;9.150;2023-06-26T14:27:34;23.80;90.70
41694;DHT22;27377;50.666;9.150;2023-06-26T14:30:00;23.80;91.40
41694;DHT22;27377;50.666;9.150;2023-06-26T14:32:26;23.80;91.50
41694;DHT22;27377;50.666;9.150;2023-06-26T14:34:51;23.80;91.70
41694;DHT22;27377;50.666;9.150;2023-06-26T14:37:17;23.80;91.10
41694;DHT22;27377;50.666;9.150;2023-06-26T14:39:44;23.80;89.90
41694;DHT22;27377;50.666;9.150;2023-06-26T14:42:10;23.80;90.30
41694;DHT22;27377;50.666;9.150;2023-06-26T14:44:36;23.80;90.60
41694;DHT22;27377;50.666;9.150;2023-06-26T14:47:01;23.90;89.80
41694;DHT22;27377;50.666;9.150;2023-06-26T14:49:27;23.90;90.20
41694;DHT22;27377;50.666;9.150;2023-06-26T14:51:52;23.80;90.70
41694;DHT22;27377;50.666;9.150;2023-06-26T14:54:18;23.80;88.70
41694;DHT22;27377;50.666;9.150;2023-06-26T14:56:44;23.90;88.60
41694;DHT22;27377;50.666;9.150;2023-06-26T14:59:11;23.80;87.50
41694;DHT22;27377;50.666;9.150;2023-06-26T15:01:38;23.80;88.40
41694;DHT22;27377;50.666;9.150;2023-06-26T15:04:07;23.80;89.50
41694;DHT22;27377;50.666;9.150;2023-06-26T15:06:33;23.80;90.00
41694;DHT22;27377;50.666;9.150;2023-06-26T15:08:59;23.80;88.80
41694;DHT22;27377;50.666;9.150;2023-06-26T15:11:26;23.80;86.80
41694;DHT22;27377;50.666;9.150;2023-06-26T15:13:51;23.80;87.20
41694;DHT22;27377;50.666;9.150;2023-06-26T15:16:20;23.80;88.40
41694;DHT22;27377;50.666;9.150;2023-06-26T15:18:49;23.80;89.20
41694;DHT22;27377;50.666;9.150;2023-06-26T15:21:15;23.80;89.30
41694;DHT22;27377;50.666;9.150;2023-06-26T15:23:45;23.70;89.20
41694;DHT22;27377;50.666;9.150;2023-06-26T15:26:11;23.70;88.70
41694;DHT22;27377;50.666;9.150;2023-06-26T15:28:37;23.70;88.50
41694;DHT22;27377;50.666;9.150;2023-06-26T15:31:03;23.70;90.10
41694;DHT22;27377;50.666;9.150;2023-06-26T15:33:29;23.70;87.50
41694;DHT22;27377;50.666;9.150;2023-06-26T15:35:55;23.70;87.80
41694;DHT22;27377;50.666;9.150;2023-06-26T15:38:20;23.70;88.40
41694;DHT22;27377;50.666;9.150;2023-06-26T15:40:46;23.80;85.50
41694;DHT22;27377;50.666;9.150;2023-06-26T15:43:12;23.80;84.80
41694;DHT22;27377;50.666;9.150;2023-06-26T15:45:38;23.80;83.80
41694;DHT22;27377;50.666;9.150;2023-06-26T15:48:04;23.80;84.00
41694;DHT22;27377;50.666;9.150;2023-06-26T15:50:31;23.80;82.70
41694;DHT22;27377;50.666;9.150;2023-06-26T15:52:57;23.90;82.80
41694;DHT22;27377;50.666;9.150;2023-06-26T15:55:25;23.80;83.80
41694;DHT22;27377;50.666;9.150;2023-06-26T15:57:52;23.80;84.50